Terminal Aerodrome Forecast
Issued by NWS Sterling, VA

Current Version | Previous Version | Text Only | Print | Product List | Glossary Off
Versions: 1 2 3 4 5 6 7 8 9 10 11 12 13 14 15 16 17 18 19 20 21 22 23 24 25 26 27 28 29 30

000
FTUS41 KLWX 061921 AAA
TAFIAD
TAF AMD
KIAD 061921Z 0619/0724 10007KT P6SM VCTS BKN050CB
     FM070100 31006KT P6SM BKN050
     FM070800 VRB03KT 5SM BR BKN050
     FM071300 VRB03KT P6SM SCT025
     FM072100 16005KT P6SM SCT250=

USA.gov is the U.S. government's official web portal to all federal, state and local government web resources and services.